Date,TemperatureHighF,TemperatureAvgF,TemperatureLowF,DewpointHighF,DewpointAvgF,DewpointLowF,HumidityHigh,HumidityAvg,HumidityLow,PressureMaxIn,PressureMinIn,WindSpeedMaxMPH,WindSpeedAvgMPH,GustSpeedMaxMPH,PrecipitationSumIn
2013-1-1,18,11,3,-100,-100,-100,0,0,100,0.00,40.00,0,-999,0,0.00
2013-1-2,31,22,15,-100,-100,-100,0,0,100,0.00,40.00,0,-999,0,0.00
2013-1-3,29,24,18,-100,-100,-100,0,0,100,0.00,40.00,0,-999,0,0.00
2013-1-4,33,22,17,-100,-100,-100,0,0,100,0.00,40.00,0,-999,0,0.00
2013-1-5,35,28,18,-100,-100,-100,0,0,100,0.00,40.00,0,-999,0,0.00
2013-1-6,39,25,17,-100,-100,-100,0,0,100,0.00,40.00,0,-999,0,0.00
2013-1-7,41,33,25,-100,-100,-100,0,0,100,0.00,40.00,0,-999,0,0.00
2013-1-8,43,34,26,-100,-100,-100,0,0,100,0.00,40.00,0,-999,0,0.00
2013-1-9,45,34,24,-100,-100,-100,0,0,100,0.00,40.00,0,-999,0,0.00
2013-1-10,36,34,28,-100,-100,-100,0,0,100,0.00,40.00,0,-999,0,0.00
2013-1-11,52,44,30,-100,-100,-100,0,0,100,0.00,40.00,0,-999,0,0.00
2013-1-12,30,21,14,-100,-100,-100,0,0,100,0.00,40.00,0,-999,0,0.00
2013-1-13,21,15,9,-100,-100,-100,0,0,100,0.00,40.00,0,-999,0,0.00
2013-1-14,29,18,6,-100,-100,-100,0,0,100,0.00,40.00,0,-999,0,0.00
2013-1-15,32,25,14,-100,-100,-100,0,0,100,0.00,40.00,0,-999,0,0.00
2013-1-16,49,36,22,-100,-100,-100,0,0,100,0.00,40.00,0,-999,0,0.00
2013-1-17,39,30,24,-100,-100,-100,0,0,100,0.00,40.00,0,-999,0,0.00
2013-1-18,52,42,27,-100,-100,-100,0,0,100,0.00,40.00,0,-999,0,0.00
2013-1-19,53,43,34,-100,-100,-100,0,0,100,0.00,40.00,0,-999,0,0.00
2013-1-20,25,19,14,-100,-100,-100,0,0,100,0.00,40.00,0,-999,0,0.00
2013-1-21,14,12,9,-100,-100,-100,0,0,100,0.00,40.00,0,-999,0,0.00
2013-1-22,22,15,9,-100,-100,-100,0,0,100,0.00,40.00,0,-999,0,0.00
2013-1-23,34,20,12,-100,-100,-100,0,0,100,0.00,40.00,0,-999,0,0.00
2013-1-24,19,11,1,-100,-100,-100,0,0,100,0.00,40.00,0,-999,0,0.00
2013-1-25,45,31,17,-100,-100,-100,0,0,100,0.00,40.00,0,-999,0,0.00
2013-1-26,43,31,17,-100,-100,-100,0,0,100,0.00,40.00,0,-999,0,0.00
2013-1-27,41,37,34,-100,-100,-100,0,0,100,0.00,40.00,0,-999,0,0.00
2013-1-28,46,38,31,-100,-100,-100,0,0,100,0.00,40.00,0,-999,0,0.00
2013-1-29,39,33,30,-100,-100,-100,0,0,100,0.00,40.00,0,-999,0,0.00
2013-1-30,29,23,17,-100,-100,-100,0,0,100,0.00,40.00,0,-999,0,0.00
2013-1-31,9,6,1,-100,-100,-100,0,0,100,0.00,40.00,0,-999,0,0.00
2013-2-1,25,12,-3,-100,-100,-100,0,0,100,0.00,40.00,0,-999,0,0.00
2013-2-2,37,29,24,-100,-100,-100,0,0,100,0.00,40.00,0,-999,0,0.00
2013-2-3,41,35,25,-100,-100,-100,0,0,100,0.00,40.00,0,-999,0,0.00
2013-2-4,36,31,23,-100,-100,-100,0,0,100,0.00,40.00,0,-999,0,0.00
2013-2-5,50,34,25,-100,-100,-100,0,0,100,0.00,40.00,0,-999,0,0.00
2013-2-6,55,41,27,-100,-100,-100,0,0,100,0.00,40.00,0,-999,0,0.00
2013-2-7,41,34,29,-100,-100,-100,0,0,100,0.00,40.00,0,-999,0,0.00
2013-2-8,32,28,24,-100,-100,-100,0,0,100,0.00,40.00,0,-999,0,0.00
2013-2-9,46,34,27,-100,-100,-100,0,0,100,0.00,40.00,0,-999,0,0.00
2013-2-10,43,36,31,-100,-100,-100,0,0,100,0.00,40.00,0,-999,0,0.00
2013-2-11,37,31,28,-100,-100,-100,0,0,100,0.00,40.00,0,-999,0,0.00
2013-2-12,45,29,20,-100,-100,-100,0,0,100,0.00,40.00,0,-999,0,0.00
2013-2-13,50,36,25,-100,-100,-100,0,0,100,0.00,40.00,0,-999,0,0.00
2013-2-14,43,38,29,-100,-100,-100,0,0,100,0.00,40.00,0,-999,0,0.00
2013-2-15,32,24,14,-100,-100,-100,0,0,100,0.00,40.00,0,-999,0,0.00
2013-2-16,30,24,12,-100,-100,-100,0,0,100,0.00,40.00,0,-999,0,0.00
2013-2-17,49,36,23,-100,-100,-100,0,0,100,0.00,40.00,0,-999,0,0.00
2013-2-18,43,33,22,-100,-100,-100,0,0,100,0.00,40.00,0,-999,0,0.00
2013-2-19,32,20,11,-100,-100,-100,0,0,100,0.00,40.00,0,-999,0,0.00
2013-2-20,22,15,7,-100,-100,-100,0,0,100,0.00,40.00,0,-999,0,0.00
2013-2-21,21,20,18,-100,-100,-100,0,0,100,0.00,40.00,0,-999,0,0.00
2013-2-22,24,18,13,-100,-100,-100,0,0,100,0.00,40.00,0,-999,0,0.00
2013-2-23,33,20,6,-100,-100,-100,0,0,100,0.00,40.00,0,-999,0,0.00
2013-2-24,37,27,18,-100,-100,-100,0,0,100,0.00,40.00,0,-999,0,0.00
2013-2-25,35,31,28,-100,-100,-100,0,0,100,0.00,40.00,0,-999,0,0.00
2013-2-26,30,28,27,-100,-100,-100,0,0,100,0.00,40.00,0,-999,0,0.00
2013-2-27,37,30,25,-100,-100,-100,0,0,100,0.00,40.00,0,-999,0,0.00
2013-2-28,31,27,25,-100,-100,-100,0,0,100,0.00,40.00,0,-999,0,0.00
2013-3-1,29,26,24,-100,-100,-100,0,0,100,0.00,40.00,0,-999,0,0.00
2013-3-2,32,27,21,-100,-100,-100,0,0,100,0.00,40.00,0,-999,0,0.00
2013-3-3,40,31,24,-100,-100,-100,0,0,100,0.00,40.00,0,-999,0,0.00
2013-3-4,41,36,30,-100,-100,-100,0,0,100,0.00,40.00,0,-999,0,0.00
2013-3-5,32,27,24,-100,-100,-100,0,0,100,0.00,40.00,0,-999,0,0.00
2013-3-6,36,27,22,-100,-100,-100,0,0,100,0.00,40.00,0,-999,0,0.00
2013-3-7,49,31,21,-100,-100,-100,0,0,100,0.00,40.00,0,-999,0,0.00
2013-3-8,63,44,29,-100,-100,-100,0,0,100,0.00,40.00,0,-999,0,0.00
2013-3-9,52,47,40,-100,-100,-100,0,0,100,0.00,40.00,0,-999,0,0.00
2013-3-10,35,28,22,-100,-100,-100,0,0,100,0.00,40.00,0,-999,0,0.00
2013-3-11,30,23,20,-100,-100,-100,0,0,100,0.00,40.00,0,-999,0,0.00
2013-3-12,34,29,24,-100,-100,-100,0,0,100,0.00,40.00,0,-999,0,0.00
2013-3-13,37,30,18,-100,-100,-100,0,0,100,0.00,40.00,0,-999,0,0.00
2013-3-14,60,44,32,-100,-100,-100,0,0,100,0.00,40.00,0,-999,0,0.00
2013-3-15,63,50,30,-100,-100,-100,0,0,100,0.00,40.00,0,-999,0,0.00
2013-3-16,38,32,29,-100,-100,-100,0,0,100,0.00,40.00,0,-999,0,0.00
2013-3-17,40,30,25,-100,-100,-100,0,0,100,0.00,40.00,0,-999,0,0.00
2013-3-18,40,35,31,-100,-100,-100,0,0,100,0.00,40.00,0,-999,0,0.00
2013-3-19,45,31,24,-100,-100,-100,0,0,100,0.00,40.00,0,-999,0,0.00
2013-3-20,33,26,17,-100,-100,-100,0,0,100,0.00,40.00,0,-999,0,0.00
2013-3-21,30,24,20,-100,-100,-100,0,0,100,0.00,40.00,0,-999,0,0.00
2013-3-22,35,30,26,-100,-100,-100,0,0,100,0.00,40.00,0,-999,0,0.00
2013-3-23,35,31,29,-100,-100,-100,0,0,100,0.00,40.00,0,-999,0,0.00
2013-3-24,27,25,23,-100,-100,-100,0,0,100,0.00,40.00,0,-999,0,0.00
2013-3-25,29,25,23,-100,-100,-100,0,0,100,0.00,40.00,0,-999,0,0.00
2013-3-26,39,27,18,-100,-100,-100,0,0,100,0.00,40.00,0,-999,0,0.00
2013-3-27,47,34,25,-100,-100,-100,0,0,100,0.00,40.00,0,-999,0,0.00
2013-3-28,57,42,23,-100,-100,-100,0,0,100,0.00,40.00,0,-999,0,0.00
2013-3-29,64,45,27,-100,-100,-100,0,0,100,0.00,40.00,0,-999,0,0.00
2013-3-30,64,52,44,-100,-100,-100,0,0,100,0.00,40.00,0,-999,0,0.00
2013-3-31,57,48,42,-100,-100,-100,0,0,100,0.00,40.00,0,-999,0,0.00
2013-4-1,40,32,25,-100,-100,-100,0,0,100,0.00,40.00,0,-999,0,0.00
2013-4-2,49,36,21,-100,-100,-100,0,0,100,0.00,40.00,0,-999,0,0.00
2013-4-3,49,39,29,-100,-100,-100,0,0,100,0.00,40.00,0,-999,0,0.00
2013-4-4,63,47,27,-100,-100,-100,0,0,100,0.00,40.00,0,-999,0,0.00
2013-4-5,65,53,35,-100,-100,-100,0,0,100,0.00,40.00,0,-999,0,0.00
2013-4-6,68,58,51,-100,-100,-100,0,0,100,0.00,40.00,0,-999,0,0.00
2013-4-7,71,56,39,-100,-100,-100,0,0,100,0.00,40.00,0,-999,0,0.00
2013-4-8,65,58,47,-100,-100,-100,0,0,100,0.00,40.00,0,-999,0,0.00
2013-4-9,62,49,34,-100,-100,-100,0,0,100,0.00,40.00,0,-999,0,0.00
2013-4-10,36,36,31,-100,-100,-100,0,0,100,0.00,40.00,0,-999,0,0.00
2013-4-11,43,33,30,-100,-100,-100,0,0,100,0.00,40.00,0,-999,0,0.00
2013-4-12,43,35,30,-100,-100,-100,0,0,100,0.00,40.00,0,-999,0,0.00
2013-4-13,51,36,25,-100,-100,-100,0,0,100,0.00,40.00,0,-999,0,0.00
2013-4-14,64,54,43,-100,-100,-100,0,0,100,0.00,40.00,0,-999,0,0.00
2013-4-15,43,40,35,-100,-100,-100,0,0,100,0.00,40.00,0,-999,0,0.00
2013-4-16,47,40,32,-100,-100,-100,0,0,100,0.00,40.00,0,-999,0,0.00
2013-4-17,44,41,40,-100,-100,-100,0,0,100,0.00,40.00,0,-999,0,0.00
2013-4-18,36,33,32,-100,-100,-100,0,0,100,0.00,40.00,0,-999,0,0.00
2013-4-19,46,34,26,-100,-100,-100,0,0,100,0.00,40.00,0,-999,0,0.00
2013-4-20,45,33,25,-100,-100,-100,0,0,100,0.00,40.00,0,-999,0,0.00
2013-4-21,64,50,41,-100,-100,-100,0,0,100,0.00,40.00,0,-999,0,0.00
2013-4-22,57,47,32,-100,-100,-100,0,0,100,0.00,40.00,0,-999,0,0.00
2013-4-23,40,33,28,-100,-100,-100,0,0,100,0.00,40.00,0,-999,0,0.00
2013-4-24,54,41,25,-100,-100,-100,0,0,100,0.00,40.00,0,-999,0,0.00
2013-4-25,66,52,33,-100,-100,-100,0,0,100,0.00,40.00,0,-999,0,0.00
2013-4-26,61,54,48,-100,-100,-100,0,0,100,0.00,40.00,0,-999,0,0.00
2013-4-27,63,52,48,-100,-100,-100,0,0,100,0.00,40.00,0,-999,0,0.00
2013-4-28,75,57,43,-100,-100,-100,0,0,100,0.00,40.00,0,-999,0,0.00
2013-4-29,78,66,54,-100,-100,-100,0,0,100,0.00,40.00,0,-999,0,0.00
2013-4-30,80,71,61,-100,-100,-100,0,0,100,0.00,40.00,0,-999,0,0.00
2013-5-1,54,43,32,-100,-100,-100,0,0,100,0.00,40.00,0,-999,0,0.00
2013-5-2,45,37,30,-100,-100,-100,0,0,100,0.00,40.00,0,-999,0,0.00
2013-5-3,43,37,32,-100,-100,-100,0,0,100,0.00,40.00,0,-999,0,0.00
2013-5-4,44,38,34,-100,-100,-100,0,0,100,0.00,40.00,0,-999,0,0.00
2013-5-5,51,43,40,-100,-100,-100,0,0,100,0.00,40.00,0,-999,0,0.00
2013-5-6,64,52,47,-100,-100,-100,0,0,100,0.00,40.00,0,-999,0,0.00
2013-5-7,71,55,41,-100,-100,-100,0,0,100,0.00,40.00,0,-999,0,0.00
2013-5-8,70,61,56,-100,-100,-100,0,0,100,0.00,40.00,0,-999,0,0.00
2013-5-9,68,60,55,-100,-100,-100,0,0,100,0.00,40.00,0,-999,0,0.00
2013-5-10,67,55,49,-100,-100,-100,0,0,100,0.00,40.00,0,-999,0,0.00
2013-5-11,62,54,45,-100,-100,-100,0,0,100,0.00,40.00,0,-999,0,0.00
2013-5-12,63,47,31,-100,-100,-100,0,0,100,0.00,40.00,0,-999,0,0.00
2013-5-13,78,60,47,-100,-100,-100,0,0,100,0.00,40.00,0,-999,0,0.00